createdAt,value
2019-04-10T00:00:08.680Z,7.80
2019-04-10T00:02:37.866Z,7.70
2019-04-10T00:05:07.607Z,7.70
2019-04-10T00:07:37.507Z,7.70
2019-04-10T00:10:07.761Z,7.60
2019-04-10T00:12:38.771Z,7.60
2019-04-10T00:15:09.217Z,7.60
2019-04-10T00:17:38.616Z,7.60
2019-04-10T00:20:07.879Z,7.50
2019-04-10T00:22:38.127Z,7.60
2019-04-10T00:25:08.488Z,7.50
2019-04-10T00:27:38.878Z,7.50
2019-04-10T00:30:09.108Z,7.50
2019-04-10T00:32:38.447Z,7.50
2019-04-10T00:35:07.681Z,7.40
2019-04-10T00:37:37.365Z,7.40
2019-04-10T00:40:06.955Z,7.40
2019-04-10T00:42:36.975Z,7.40
2019-04-10T00:45:06.559Z,7.30
2019-04-10T00:47:35.715Z,7.30
2019-04-10T00:50:06.408Z,7.20
2019-04-10T00:52:36.553Z,7.20
2019-04-10T00:55:06.260Z,7.20
2019-04-10T00:57:35.458Z,7.20
2019-04-10T01:00:06.507Z,7.10
2019-04-10T01:02:36.571Z,7.10
2019-04-10T01:05:06.896Z,7.10
2019-04-10T01:07:39.818Z,7.10
2019-04-10T01:10:08.367Z,7.00
2019-04-10T01:12:38.366Z,7.00
2019-04-10T01:15:07.936Z,6.90
2019-04-10T01:17:38.135Z,6.90
2019-04-10T01:20:09.153Z,6.80
2019-04-10T01:22:39.239Z,6.80
2019-04-10T01:25:08.619Z,6.80
2019-04-10T01:27:38.302Z,6.80
2019-04-10T01:30:08.761Z,6.70
2019-04-10T01:32:38.047Z,6.70
2019-04-10T01:35:07.824Z,6.70
2019-04-10T01:37:48.765Z,6.60
2019-04-10T01:40:08.312Z,6.60
2019-04-10T01:42:37.457Z,6.60
2019-04-10T01:45:06.832Z,6.50
2019-04-10T01:47:35.975Z,6.50
2019-04-10T01:50:06.380Z,6.50
2019-04-10T01:52:35.658Z,6.40
2019-04-10T01:55:17.223Z,6.40
2019-04-10T01:57:36.640Z,6.40
2019-04-10T02:00:06.821Z,6.30
2019-04-10T02:02:47.688Z,6.30
2019-04-10T02:05:16.970Z,6.30
2019-04-10T02:07:59.635Z,6.20
2019-04-10T02:10:18.238Z,6.20
2019-04-10T02:12:47.746Z,6.20
2019-04-10T02:15:17.752Z,6.10
2019-04-10T02:18:33.715Z,6.10
2019-04-10T02:21:03.315Z,6.00
2019-04-10T02:23:32.659Z,6.00
2019-04-10T02:26:01.863Z,6.00
2019-04-10T02:28:31.282Z,5.90
2019-04-10T02:31:00.770Z,5.90
2019-04-10T02:33:31.278Z,5.90
2019-04-10T02:36:01.355Z,5.90
2019-04-10T02:38:50.849Z,5.90
2019-04-10T02:41:03.338Z,5.90
2019-04-10T02:43:33.692Z,5.80
2019-04-10T02:46:04.102Z,5.80
2019-04-10T02:48:33.866Z,5.80
2019-04-10T02:51:03.339Z,5.70
2019-04-10T02:53:32.561Z,5.70
2019-04-10T02:56:03.118Z,5.70
2019-04-10T02:58:32.446Z,5.60
2019-04-10T03:01:03.116Z,5.60
2019-04-10T03:03:34.073Z,5.60
2019-04-10T03:06:04.972Z,5.60
2019-04-10T03:08:49.306Z,5.50
2019-04-10T03:11:10.570Z,5.50
2019-04-10T03:13:38.120Z,5.50
2019-04-10T03:16:08.155Z,5.50
2019-04-10T03:18:37.384Z,5.50
2019-04-10T03:21:06.870Z,5.50
2019-04-10T03:23:36.187Z,5.50
2019-04-10T03:26:05.586Z,5.40
2019-04-10T03:28:35.507Z,5.40
2019-04-10T03:31:05.823Z,5.40
2019-04-10T03:33:46.774Z,5.50
2019-04-10T03:36:13.608Z,5.40
2019-04-10T03:38:55.422Z,5.40
2019-04-10T03:41:13.950Z,5.40
2019-04-10T03:43:43.768Z,5.40
2019-04-10T03:46:13.118Z,5.50
2019-04-10T03:48:42.291Z,5.50
2019-04-10T03:51:12.368Z,5.50
2019-04-10T03:53:42.535Z,5.50
2019-04-10T03:56:11.807Z,5.50
2019-04-10T03:58:41.885Z,5.40
2019-04-10T04:01:11.262Z,5.40
2019-04-10T04:03:40.575Z,5.40
2019-04-10T04:06:11.079Z,5.40
2019-04-10T04:08:40.644Z,5.40
2019-04-10T04:11:09.915Z,5.40
2019-04-10T04:13:39.699Z,5.30
2019-04-10T04:16:09.087Z,5.30
2019-04-10T04:18:39.222Z,5.30
2019-04-10T04:21:09.695Z,5.30
2019-04-10T04:23:39.047Z,5.30
2019-04-10T04:26:08.313Z,5.30
2019-04-10T04:28:37.552Z,5.30
2019-04-10T04:31:07.470Z,5.20
2019-04-10T04:33:36.762Z,5.20
2019-04-10T04:36:06.197Z,5.20
2019-04-10T04:38:35.427Z,5.20
2019-04-10T04:41:04.850Z,5.20
2019-04-10T04:43:34.226Z,5.20
2019-04-10T04:46:03.446Z,5.20
2019-04-10T04:48:32.700Z,5.20
2019-04-10T04:51:03.155Z,5.20
2019-04-10T04:53:32.591Z,5.20
2019-04-10T04:56:01.805Z,5.30
2019-04-10T04:58:31.163Z,5.20
2019-04-10T05:01:00.467Z,5.30
2019-04-10T05:03:29.612Z,5.30
2019-04-10T05:05:58.859Z,5.30
2019-04-10T05:08:28.134Z,5.30
2019-04-10T05:10:57.947Z,5.30
2019-04-10T05:13:28.349Z,5.30
2019-04-10T05:15:57.811Z,5.40
2019-04-10T05:18:27.457Z,5.50
2019-04-10T05:20:56.827Z,5.50
2019-04-10T05:23:26.581Z,5.50
2019-04-10T05:25:56.230Z,5.60
2019-04-10T05:28:26.349Z,5.70
2019-04-10T05:30:56.769Z,5.90
2019-04-10T05:33:26.776Z,6.00
2019-04-10T05:35:56.999Z,6.10
2019-04-10T05:38:27.078Z,6.10
2019-04-10T05:40:57.146Z,6.10
2019-04-10T05:43:26.451Z,6.10
2019-04-10T05:45:55.667Z,6.10
2019-04-10T05:48:25.457Z,6.20
2019-04-10T05:51:01.284Z,6.30
2019-04-10T05:53:26.664Z,6.40
2019-04-10T05:55:55.937Z,6.60
2019-04-10T05:58:25.812Z,6.70
2019-04-10T06:00:56.836Z,6.90
2019-04-10T06:03:26.175Z,6.90
2019-04-10T06:05:56.326Z,6.90
2019-04-10T06:08:25.880Z,6.70
2019-04-10T06:10:56.105Z,6.80
2019-04-10T06:13:25.709Z,6.80
2019-04-10T06:15:55.162Z,6.80
2019-04-10T06:18:24.402Z,7.20
2019-04-10T06:20:54.596Z,7.30
2019-04-10T06:23:23.982Z,7.50
2019-04-10T06:25:54.159Z,7.90
2019-04-10T06:28:25.513Z,8.30
2019-04-10T06:30:54.539Z,8.70
2019-04-10T06:33:24.168Z,8.90
2019-04-10T06:35:55.146Z,9.10
2019-04-10T06:38:24.474Z,9.20
2019-04-10T06:40:54.414Z,9.30
2019-04-10T06:43:23.800Z,9.40
2019-04-10T06:45:53.155Z,9.50
2019-04-10T06:48:22.375Z,9.70
2019-04-10T06:50:51.543Z,9.60
2019-04-10T06:53:21.312Z,9.90
2019-04-10T06:55:52.417Z,10.10
2019-04-10T06:58:21.709Z,10.10
2019-04-10T07:00:53.314Z,10.30
2019-04-10T07:03:23.073Z,10.50
2019-04-10T07:06:02.426Z,10.70
2019-04-10T07:08:26.012Z,10.80
2019-04-10T07:11:02.567Z,10.90
2019-04-10T07:13:26.652Z,11.10
2019-04-10T07:15:58.063Z,11.00
2019-04-10T07:18:26.829Z,11.30
2019-04-10T07:20:59.377Z,11.50
2019-04-10T07:23:29.240Z,11.60
2019-04-10T07:25:58.360Z,11.50
2019-04-10T07:28:27.861Z,11.60
2019-04-10T07:31:00.199Z,11.60
2019-04-10T07:33:28.779Z,11.70
2019-04-10T07:35:59.028Z,11.80
2019-04-10T07:38:28.738Z,11.70
2019-04-10T07:40:58.893Z,11.70
2019-04-10T07:43:29.482Z,12.10
2019-04-10T07:45:59.187Z,12.00
2019-04-10T07:48:29.353Z,11.90
2019-04-10T07:50:58.723Z,11.90
2019-04-10T07:53:27.889Z,11.60
2019-04-10T07:56:05.663Z,11.90
2019-04-10T07:58:29.191Z,11.60
2019-04-10T08:00:58.868Z,11.30
2019-04-10T08:03:28.801Z,10.90
2019-04-10T08:05:58.240Z,10.70
2019-04-10T08:08:27.819Z,10.50
2019-04-10T08:10:57.409Z,10.30
2019-04-10T08:13:26.895Z,10.30
2019-04-10T08:15:56.386Z,10.00
2019-04-10T08:18:25.759Z,10.00
2019-04-10T08:20:55.156Z,9.80
2019-04-10T08:23:24.605Z,9.50
2019-04-10T08:25:53.809Z,9.50
2019-04-10T08:28:23.985Z,9.60
2019-04-10T08:30:53.319Z,9.60
2019-04-10T08:33:22.487Z,9.80
2019-04-10T08:35:51.735Z,10.10
2019-04-10T08:38:21.786Z,10.30
2019-04-10T08:40:52.272Z,10.50
2019-04-10T08:43:22.442Z,10.40
2019-04-10T08:45:53.425Z,10.10
2019-04-10T08:48:22.567Z,10.10
2019-04-10T08:50:52.464Z,10.20
2019-04-10T08:53:22.204Z,10.40
2019-04-10T08:55:52.523Z,10.40
2019-04-10T08:58:22.865Z,10.20
2019-04-10T09:00:53.014Z,10.00
2019-04-10T09:03:23.112Z,9.80
2019-04-10T09:05:53.134Z,9.80
2019-04-10T09:08:22.432Z,9.70
2019-04-10T09:10:52.517Z,9.70
2019-04-10T09:13:22.191Z,9.60
2019-04-10T09:15:51.409Z,9.60
2019-04-10T09:18:21.061Z,9.70
2019-04-10T09:20:51.010Z,9.80
2019-04-10T09:23:35.361Z,10.10
2019-04-10T09:25:51.323Z,10.30
2019-04-10T09:28:20.703Z,10.20
2019-04-10T09:30:51.207Z,10.20
2019-04-10T09:33:25.057Z,10.10
2019-04-10T09:35:51.463Z,10.10
2019-04-10T09:38:21.000Z,10.10
2019-04-10T09:40:50.221Z,10.10
2019-04-10T09:43:19.403Z,10.00
2019-04-10T09:45:48.731Z,10.00
2019-04-10T09:48:18.655Z,10.00
2019-04-10T09:50:48.207Z,9.90
2019-04-10T09:53:17.457Z,9.90
2019-04-10T09:55:46.904Z,10.00
2019-04-10T09:58:16.197Z,10.10
2019-04-10T10:00:45.871Z,10.10
2019-04-10T10:03:15.257Z,10.10
2019-04-10T10:05:44.719Z,10.10
2019-04-10T10:08:14.216Z,10.20
2019-04-10T10:10:43.532Z,10.40
2019-04-10T10:13:13.078Z,10.40
2019-04-10T10:15:43.187Z,10.60
2019-04-10T10:18:13.020Z,10.80
2019-04-10T10:20:42.379Z,11.00
2019-04-10T10:23:11.801Z,11.20
2019-04-10T10:25:41.524Z,11.10
2019-04-10T10:28:11.753Z,10.90
2019-04-10T10:30:41.827Z,10.80
2019-04-10T10:33:11.223Z,10.80
2019-04-10T10:35:41.146Z,10.70
2019-04-10T10:38:10.565Z,10.60
2019-04-10T10:40:39.915Z,10.60
2019-04-10T10:43:10.005Z,10.60
2019-04-10T10:45:39.347Z,10.60
2019-04-10T10:48:09.096Z,10.70
2019-04-10T10:50:39.408Z,10.70
2019-04-10T10:53:08.775Z,10.70
2019-04-10T10:55:38.019Z,11.00
2019-04-10T10:58:07.907Z,11.00
2019-04-10T11:00:37.492Z,11.10
2019-04-10T11:03:07.743Z,11.40
2019-04-10T11:05:37.236Z,11.20
2019-04-10T11:08:06.888Z,11.10
2019-04-10T11:10:36.278Z,11.20
2019-04-10T11:13:06.553Z,11.10
2019-04-10T11:15:37.757Z,11.10
2019-04-10T11:18:08.358Z,11.10
2019-04-10T11:20:38.070Z,10.90
2019-04-10T11:23:07.231Z,10.80
2019-04-10T11:25:37.746Z,10.90
2019-04-10T11:28:07.678Z,10.90
2019-04-10T11:30:37.219Z,11.00
2019-04-10T11:33:06.626Z,10.90
2019-04-10T11:35:37.257Z,10.80
2019-04-10T11:38:07.205Z,10.70
2019-04-10T11:40:36.636Z,10.80
2019-04-10T11:43:07.553Z,11.00
2019-04-10T11:45:43.102Z,11.00
2019-04-10T11:48:07.967Z,11.20
2019-04-10T11:50:38.455Z,11.10
2019-04-10T11:53:10.306Z,11.20
2019-04-10T11:55:43.681Z,11.20
2019-04-10T11:58:11.356Z,11.20
2019-04-10T12:03:15.237Z,11.10
2019-04-10T12:05:46.363Z,11.20
2019-04-10T12:08:40.219Z,11.20
2019-04-10T12:13:19.177Z,11.50
2019-04-10T12:15:48.410Z,11.50
2019-04-10T12:18:18.646Z,11.40
2019-04-10T12:20:47.851Z,11.40
2019-04-10T12:23:17.020Z,11.50
2019-04-10T12:25:47.179Z,11.30
2019-04-10T12:28:16.418Z,11.20
2019-04-10T12:30:45.817Z,11.10
2019-04-10T12:33:15.011Z,11.20
2019-04-10T12:35:44.163Z,11.20
2019-04-10T12:38:13.474Z,11.00
2019-04-10T12:40:43.054Z,11.10
2019-04-10T12:43:12.689Z,11.30
2019-04-10T12:45:42.350Z,11.40
2019-04-10T12:48:12.553Z,11.50
2019-04-10T12:50:41.870Z,11.50
2019-04-10T12:53:11.579Z,11.50
2019-04-10T12:55:41.815Z,11.50
2019-04-10T12:58:15.751Z,11.50
2019-04-10T13:00:42.906Z,11.50
2019-04-10T13:03:12.372Z,11.50
2019-04-10T13:05:41.732Z,11.50
2019-04-10T13:08:20.238Z,11.50
2019-04-10T13:10:41.890Z,11.40
2019-04-10T13:13:11.564Z,11.50
2019-04-10T13:15:40.798Z,11.60
2019-04-10T13:18:10.402Z,11.60
2019-04-10T13:20:39.940Z,11.60
2019-04-10T13:23:09.238Z,11.70
2019-04-10T13:25:38.667Z,11.70
2019-04-10T13:28:08.839Z,11.70
2019-04-10T13:30:46.846Z,11.80
2019-04-10T13:33:09.827Z,11.80
2019-04-10T13:35:40.002Z,11.70
2019-04-10T13:38:09.483Z,11.60
2019-04-10T13:40:39.514Z,11.50
2019-04-10T13:43:09.540Z,11.40
2019-04-10T13:45:39.457Z,11.30
2019-04-10T13:48:10.202Z,11.30
2019-04-10T13:50:39.479Z,11.20
2019-04-10T13:53:08.624Z,11.20
2019-04-10T13:55:37.811Z,11.20
2019-04-10T13:58:06.994Z,11.10
2019-04-10T14:00:41.141Z,11.10
2019-04-10T14:03:12.144Z,11.10
2019-04-10T14:05:41.456Z,11.10
2019-04-10T14:08:10.607Z,11.20
2019-04-10T14:10:41.354Z,11.10
2019-04-10T14:13:11.595Z,11.20
2019-04-10T14:15:42.125Z,11.20
2019-04-10T14:18:12.310Z,11.20
2019-04-10T14:20:41.770Z,11.30
2019-04-10T14:23:31.179Z,11.30
2019-04-10T14:26:20.333Z,11.30
2019-04-10T14:28:51.296Z,11.50
2019-04-10T14:31:26.657Z,11.60
2019-04-10T14:33:56.530Z,11.90
2019-04-10T14:36:25.927Z,11.90
2019-04-10T14:39:06.680Z,11.90
2019-04-10T14:41:26.232Z,11.80
2019-04-10T14:43:55.668Z,11.60
2019-04-10T14:46:26.180Z,11.60
2019-04-10T14:48:56.573Z,11.50
2019-04-10T14:51:25.875Z,11.40
2019-04-10T14:53:55.402Z,11.50
2019-04-10T14:56:24.763Z,11.80
2019-04-10T14:58:54.873Z,11.90
2019-04-10T15:01:24.315Z,11.80
2019-04-10T15:03:53.466Z,11.80
2019-04-10T15:06:23.341Z,11.80
2019-04-10T15:08:53.538Z,12.00
2019-04-10T15:11:22.716Z,11.90
2019-04-10T15:13:51.898Z,11.90
2019-04-10T15:16:21.115Z,12.00
2019-04-10T15:18:50.336Z,12.00
2019-04-10T15:21:20.720Z,12.00
2019-04-10T15:23:51.090Z,12.10
2019-04-10T15:26:20.297Z,12.20
2019-04-10T15:28:49.964Z,12.20
2019-04-10T15:31:19.481Z,12.20
2019-04-10T15:33:49.656Z,12.30
2019-04-10T15:36:20.013Z,12.10
2019-04-10T15:38:50.471Z,12.00
2019-04-10T15:41:20.859Z,12.00
2019-04-10T15:43:50.420Z,11.80
2019-04-10T15:46:19.648Z,11.80
2019-04-10T15:48:48.954Z,11.80
2019-04-10T15:51:18.255Z,11.90
2019-04-10T15:53:47.763Z,11.70
2019-04-10T15:56:18.832Z,11.60
2019-04-10T15:58:47.984Z,11.60
2019-04-10T16:01:19.675Z,11.50
2019-04-10T16:03:49.079Z,11.50
2019-04-10T16:06:18.237Z,11.50
2019-04-10T16:08:48.265Z,11.40
2019-04-10T16:11:36.192Z,11.30
2019-04-10T16:14:16.898Z,11.20
2019-04-10T16:16:48.924Z,11.10
2019-04-10T16:19:38.669Z,11.00
2019-04-10T16:22:17.526Z,10.90
2019-04-10T16:24:47.144Z,10.90
2019-04-10T16:27:16.431Z,10.90
2019-04-10T16:29:46.848Z,10.90
2019-04-10T16:32:16.822Z,10.90
2019-04-10T16:34:47.111Z,10.80
2019-04-10T16:37:16.724Z,10.80
2019-04-10T16:39:57.844Z,10.80
2019-04-10T16:42:16.946Z,10.80
2019-04-10T16:44:46.171Z,10.80
2019-04-10T16:47:15.433Z,10.70
2019-04-10T16:49:44.733Z,10.70
2019-04-10T16:52:14.602Z,10.70
2019-04-10T16:54:45.156Z,10.60
2019-04-10T16:57:14.495Z,10.50
2019-04-10T16:59:43.836Z,10.50
2019-04-10T17:02:13.093Z,10.40
2019-04-10T17:04:42.262Z,10.40
2019-04-10T17:07:11.590Z,10.30
2019-04-10T17:09:40.932Z,10.30
2019-04-10T17:12:10.080Z,10.20
2019-04-10T17:14:39.892Z,10.20
2019-04-10T17:17:10.327Z,10.20
2019-04-10T17:19:48.751Z,10.20
2019-04-10T17:22:11.022Z,10.10
2019-04-10T17:24:40.427Z,10.10
2019-04-10T17:27:11.066Z,10.10
2019-04-10T17:29:41.101Z,10.00
2019-04-10T17:32:11.112Z,10.00
2019-04-10T17:34:41.050Z,9.90
2019-04-10T17:37:11.622Z,9.90
2019-04-10T17:39:41.762Z,9.90
2019-04-10T17:42:12.250Z,9.90
2019-04-10T17:44:42.222Z,9.80
2019-04-10T17:47:12.497Z,9.80
2019-04-10T17:49:41.848Z,9.70
2019-04-10T17:52:11.306Z,9.70
2019-04-10T17:54:40.781Z,9.60
2019-04-10T17:57:10.722Z,9.60
2019-04-10T17:59:40.705Z,9.50
2019-04-10T18:02:13.643Z,9.40
2019-04-10T18:04:44.136Z,9.30
2019-04-10T18:07:14.181Z,9.30
2019-04-10T18:09:43.469Z,9.20
2019-04-10T18:12:14.162Z,9.10
2019-04-10T18:14:44.151Z,9.10
2019-04-10T18:17:14.501Z,9.00
2019-04-10T18:19:44.141Z,8.90
2019-04-10T18:22:14.268Z,8.90
2019-04-10T18:24:43.647Z,8.80
2019-04-10T18:27:12.962Z,8.80
2019-04-10T18:29:43.368Z,8.70
2019-04-10T18:32:13.774Z,8.70
2019-04-10T18:34:43.141Z,8.60
2019-04-10T18:37:15.964Z,8.60
2019-04-10T18:39:43.291Z,8.50
2019-04-10T18:42:12.475Z,8.40
2019-04-10T18:44:41.700Z,8.40
2019-04-10T18:47:11.118Z,8.30
2019-04-10T18:49:40.419Z,8.30
2019-04-10T18:52:10.856Z,8.20
2019-04-10T18:54:40.229Z,8.20
2019-04-10T18:57:10.560Z,8.10
2019-04-10T19:00:08.062Z,8.10
2019-04-10T19:02:48.730Z,8.00
2019-04-10T19:05:21.443Z,8.00
2019-04-10T19:07:50.658Z,7.90
2019-04-10T19:10:20.048Z,7.90
2019-04-10T19:12:49.493Z,7.70
2019-04-10T19:15:18.704Z,7.70
2019-04-10T19:17:48.822Z,7.70
2019-04-10T19:20:18.303Z,7.60
2019-04-10T19:22:48.688Z,7.60
2019-04-10T19:25:18.792Z,7.50
2019-04-10T19:27:48.628Z,7.50
2019-04-10T19:30:39.606Z,7.40
2019-04-10T19:33:09.953Z,7.40
2019-04-10T19:35:39.484Z,7.30
2019-04-10T19:38:09.316Z,7.30
2019-04-10T19:40:40.273Z,7.20
2019-04-10T19:43:10.361Z,7.20
2019-04-10T19:45:39.867Z,7.10
2019-04-10T19:48:09.095Z,7.10
2019-04-10T19:50:38.346Z,7.10
2019-04-10T19:53:07.594Z,7.00
2019-04-10T19:55:37.923Z,7.00
2019-04-10T19:58:08.026Z,6.90
2019-04-10T20:00:38.747Z,6.90
2019-04-10T20:03:08.057Z,6.90
2019-04-10T20:05:37.374Z,6.80
2019-04-10T20:08:07.300Z,6.80
2019-04-10T20:10:37.337Z,6.80
2019-04-10T20:13:06.970Z,6.80
2019-04-10T20:15:36.356Z,6.70
2019-04-10T20:18:05.643Z,6.70
2019-04-10T20:20:35.999Z,6.60
2019-04-10T20:23:06.669Z,6.60
2019-04-10T20:25:36.703Z,6.60
2019-04-10T20:28:06.863Z,6.60
2019-04-10T20:30:37.049Z,6.50
2019-04-10T20:33:06.503Z,6.50
2019-04-10T20:35:36.225Z,6.40
2019-04-10T20:38:05.601Z,6.40
2019-04-10T20:40:35.889Z,6.40
2019-04-10T20:43:05.388Z,6.30
2019-04-10T20:45:35.694Z,6.30
2019-04-10T20:48:06.459Z,6.20
2019-04-10T20:50:36.302Z,6.20
2019-04-10T20:53:05.587Z,6.20
2019-04-10T20:55:35.574Z,6.10
2019-04-10T20:58:06.457Z,6.10
2019-04-10T21:00:43.095Z,6.10
2019-04-10T21:03:13.527Z,6.00
2019-04-10T21:05:42.833Z,6.00
2019-04-10T21:08:12.011Z,5.90
2019-04-10T21:10:41.212Z,5.90
2019-04-10T21:13:10.697Z,5.90
2019-04-10T21:15:40.099Z,5.80
2019-04-10T21:18:09.457Z,5.80
2019-04-10T21:20:38.755Z,5.70
2019-04-10T21:23:07.899Z,5.60
2019-04-10T21:25:37.289Z,5.60
2019-04-10T21:28:06.579Z,5.50
2019-04-10T21:31:05.358Z,5.50
2019-04-10T21:33:42.850Z,5.40
2019-04-10T21:36:13.390Z,5.40
2019-04-10T21:38:42.840Z,5.30
2019-04-10T21:41:12.608Z,5.30
2019-04-10T21:43:43.231Z,5.20
2019-04-10T21:46:12.574Z,5.20
2019-04-10T21:48:42.067Z,5.10
2019-04-10T21:51:11.643Z,5.00
2019-04-10T21:53:40.928Z,5.00
2019-04-10T21:56:10.505Z,5.00
2019-04-10T21:58:40.806Z,4.90
2019-04-10T22:01:11.529Z,4.90
2019-04-10T22:03:41.460Z,4.80
2019-04-10T22:06:28.810Z,4.80
2019-04-10T22:09:16.676Z,4.80
2019-04-10T22:11:47.678Z,4.70
2019-04-10T22:14:17.115Z,4.70
2019-04-10T22:16:46.483Z,4.60
2019-04-10T22:19:16.761Z,4.60
2019-04-10T22:21:46.263Z,4.50
2019-04-10T22:24:15.755Z,4.50
2019-04-10T22:26:45.101Z,4.50
2019-04-10T22:29:14.331Z,4.50
2019-04-10T22:31:44.113Z,4.40
2019-04-10T22:34:13.667Z,4.40
2019-04-10T22:36:43.023Z,4.30
2019-04-10T22:39:16.635Z,4.30
2019-04-10T22:41:46.278Z,4.20
2019-04-10T22:44:15.427Z,4.20
2019-04-10T22:46:44.690Z,4.10
2019-04-10T22:49:14.567Z,4.10
2019-04-10T22:51:44.009Z,4.10
2019-04-10T22:54:14.471Z,4.00
2019-04-10T22:56:43.835Z,4.00
2019-04-10T22:59:13.579Z,3.90
2019-04-10T23:01:43.258Z,3.90
2019-04-10T23:04:12.734Z,3.90
2019-04-10T23:06:41.975Z,3.80
2019-04-10T23:09:12.008Z,3.70
2019-04-10T23:11:43.532Z,3.70
2019-04-10T23:14:12.413Z,3.70
2019-04-10T23:16:41.790Z,3.70
2019-04-10T23:19:11.968Z,3.60
2019-04-10T23:21:41.451Z,3.60
2019-04-10T23:24:11.625Z,3.50
2019-04-10T23:26:41.620Z,3.40
2019-04-10T23:29:11.772Z,3.40
2019-04-10T23:31:41.623Z,3.40
2019-04-10T23:34:10.916Z,3.30
2019-04-10T23:36:40.395Z,3.20
2019-04-10T23:39:10.104Z,3.20
2019-04-10T23:41:40.012Z,3.20
2019-04-10T23:44:09.373Z,3.10
2019-04-10T23:46:38.927Z,3.10
2019-04-10T23:49:08.981Z,3.10
2019-04-10T23:51:39.071Z,3.10
2019-04-10T23:54:09.075Z,3.00
2019-04-10T23:56:38.332Z,3.00
2019-04-10T23:59:08.638Z,3.00
